»·PEaware :: N512DL KSMO-KMYF

N512DL :: KSMO-KMYF

FLIGHT INFORMATION

Flight Status: Arrived
Operator: Privately registered:
United States
More flights under this callsign
Pilot: Jeff K. (12978)
Aircraft: BEECH AIRCRAFT BARON
(BE58)
More flights by this aircraft type
Origin: KSMO Santa Monica Mun
United States
Destination: KMYF Montgomery
United States
More flights between these airports :: More routes between these airports
Route: SMO SMO125R V64 V363 DANAH V23 MZB
File this flight plan on PilotEdge
Remarks:
Altitude:
(Current/Filed)
5,000ft
Speed:
(Current/Filed)
160kts
Departed: 08-Sep-17 04:21 PM
Arrived: 08-Sep-17 05:25 PM
Distance/Time
Traveled:
98nm/1:03
Distance/Time
To Go:
Arrived

Flight Plot

Page will automatically refresh every two minutes.


Map Options




Map Legend


Flown Route
Filed Route
Departure Airport
Arrival Airport
Navaid (VOR, NDB)
Fix

Horizontal Profiles

Position Reports

Time Latitude Longitude Heading Altitude Ground
Speed
08-Sep-17 15:57 34.015812 -118.449840 312 139ft 0kts
08-Sep-17 15:58 34.015812 -118.449840 312 139ft 0kts
08-Sep-17 15:59 34.015812 -118.449840 312 139ft 0kts
08-Sep-17 16:00 34.015812 -118.449840 312 139ft 0kts
08-Sep-17 16:01 34.015812 -118.449840 312 139ft 0kts
08-Sep-17 16:02 34.015812 -118.449840 312 139ft 0kts
08-Sep-17 16:03 34.015812 -118.449840 312 139ft 0kts
08-Sep-17 16:04 34.015812 -118.449840 312 139ft 0kts
08-Sep-17 16:05 34.015812 -118.449840 312 139ft 0kts
08-Sep-17 16:06 34.015812 -118.449840 312 139ft 0kts
08-Sep-17 16:07 34.015812 -118.449840 312 139ft 0kts
08-Sep-17 16:08 34.015812 -118.449840 312 139ft 0kts
08-Sep-17 16:09 34.015812 -118.449840 312 139ft 0kts
08-Sep-17 16:10 34.015812 -118.449840 312 139ft 0kts
08-Sep-17 16:11 34.015812 -118.449840 312 139ft 0kts
08-Sep-17 16:12 34.015812 -118.449840 312 139ft 0kts
08-Sep-17 16:13 34.015812 -118.449840 312 139ft 0kts
08-Sep-17 16:14 34.015812 -118.449840 312 139ft 0kts
08-Sep-17 16:15 34.015812 -118.449840 312 139ft 0kts
08-Sep-17 16:16 34.015812 -118.449840 312 139ft 0kts
08-Sep-17 16:17 34.015913 -118.449893 17 139ft 0kts
08-Sep-17 16:18 34.015988 -118.449857 223 140ft 0kts
08-Sep-17 16:19 34.015891 -118.449943 44 139ft 0kts
08-Sep-17 16:20 34.016403 -118.449372 45 142ft 4kts
08-Sep-17 16:21 34.017864 -118.447792 43 151ft 14kts
08-Sep-17 16:22 34.019850 -118.445476 23 158ft 0kts
08-Sep-17 16:23 34.019850 -118.445476 23 158ft 0kts
08-Sep-17 16:24 34.019850 -118.445476 23 158ft 0kts
08-Sep-17 16:25 34.019438 -118.447010 224 157ft 41kts
08-Sep-17 16:26 33.998455 -118.472408 225 1251ft 128kts
08-Sep-17 16:27 33.988054 -118.511696 263 2720ft 132kts
08-Sep-17 16:28 33.983191 -118.555618 262 3614ft 128kts
08-Sep-17 16:29 33.983562 -118.597698 308 4595ft 131kts
08-Sep-17 16:30 34.010997 -118.590520 79 5025ft 141kts
08-Sep-17 16:31 34.010503 -118.539966 93 4985ft 157kts
08-Sep-17 16:32 34.008882 -118.487394 99 4999ft 156kts
08-Sep-17 16:33 33.977677 -118.457796 167 4976ft 148kts
08-Sep-17 16:34 33.938796 -118.446211 165 4988ft 145kts
08-Sep-17 16:35 33.901072 -118.429842 141 5092ft 150kts
08-Sep-17 16:36 33.867669 -118.398437 142 5094ft 158kts
08-Sep-17 16:37 33.833182 -118.365506 141 5096ft 162kts
08-Sep-17 16:38 33.796892 -118.330941 141 5042ft 169kts
08-Sep-17 16:39 33.759971 -118.295444 141 5027ft 171kts
08-Sep-17 16:40 33.722576 -118.259812 141 5039ft 171kts
08-Sep-17 16:41 33.685081 -118.224066 141 5024ft 172kts
08-Sep-17 16:42 33.647609 -118.188281 141 4997ft 172kts
08-Sep-17 16:43 33.616200 -118.146038 109 5031ft 169kts
08-Sep-17 16:44 33.618618 -118.090717 75 5030ft 172kts
08-Sep-17 16:45 33.628226 -118.034053 79 4998ft 172kts
08-Sep-17 16:46 33.636967 -117.977645 79 5001ft 173kts
08-Sep-17 16:47 33.645781 -117.920731 79 5000ft 174kts
08-Sep-17 16:48 33.654599 -117.863947 79 4997ft 171kts
08-Sep-17 16:49 33.662982 -117.810133 79 4999ft 167kts
08-Sep-17 16:50 33.671257 -117.756317 81 4999ft 167kts
08-Sep-17 16:51 33.644460 -117.723156 168 5001ft 164kts
08-Sep-17 16:52 33.600388 -117.713166 169 4999ft 164kts
08-Sep-17 16:53 33.555882 -117.701970 165 5001ft 165kts
08-Sep-17 16:54 33.511278 -117.687338 157 5000ft 168kts
08-Sep-17 16:55 33.474437 -117.655178 143 5000ft 169kts
08-Sep-17 16:56 33.437234 -117.623146 144 5000ft 169kts
08-Sep-17 16:57 33.396682 -117.594919 150 5000ft 169kts
08-Sep-17 16:58 33.360256 -117.560460 130 5000ft 169kts
08-Sep-17 16:59 33.327630 -117.519901 135 5000ft 169kts
08-Sep-17 17:00 33.294117 -117.480458 135 4999ft 169kts
08-Sep-17 17:01 33.260640 -117.440910 134 5000ft 169kts
08-Sep-17 17:02 33.231456 -117.397399 120 5000ft 169kts
08-Sep-17 17:03 33.207276 -117.349744 121 4999ft 169kts
08-Sep-17 17:04 33.183346 -117.302556 121 5000ft 169kts
08-Sep-17 17:05 33.159011 -117.254568 121 5000ft 169kts
08-Sep-17 17:06 33.134652 -117.206531 121 5000ft 169kts
08-Sep-17 17:07 33.110234 -117.158354 121 5000ft 169kts
08-Sep-17 17:08 33.085940 -117.110395 121 5000ft 169kts
08-Sep-17 17:09 33.061531 -117.062193 121 4999ft 169kts
08-Sep-17 17:10 33.037204 -117.014137 121 5000ft 169kts
08-Sep-17 17:11 33.012884 -116.966079 121 5000ft 169kts
08-Sep-17 17:12 32.988597 -116.918074 120 5000ft 169kts
08-Sep-17 17:13 32.964305 -116.870053 120 5000ft 169kts
08-Sep-17 17:14 32.940306 -116.822593 120 5000ft 169kts
08-Sep-17 17:15 32.918706 -116.779873 120 5000ft 169kts
08-Sep-17 17:16 32.898461 -116.739837 120 4999ft 169kts
08-Sep-17 17:17 32.866054 -116.727625 217 5956ft 142kts
08-Sep-17 17:18 32.832728 -116.761878 220 6005ft 168kts
08-Sep-17 17:19 32.796924 -116.798999 220 6000ft 172kts
08-Sep-17 17:20 32.761451 -116.835770 220 5996ft 165kts
08-Sep-17 17:21 32.730309 -116.874335 256 6003ft 163kts
08-Sep-17 17:22 32.730140 -116.926643 296 5560ft 155kts
08-Sep-17 17:23 32.748685 -116.970545 296 4284ft 145kts
08-Sep-17 17:24 32.766287 -117.013410 294 2854ft 133kts
08-Sep-17 17:25 32.780308 -117.050031 295 2020ft 120kts
08-Sep-17 17:26 32.792944 -117.081278 296 1432ft 120kts
08-Sep-17 17:27 32.804979 -117.111473 295 939ft 108kts
08-Sep-17 17:28 32.816382 -117.140247 295 416ft 68kts
08-Sep-17 17:29 32.817325 -117.144979 203 411ft 0kts
08-Sep-17 17:30 32.816028 -117.145004 114 411ft 15kts
08-Sep-17 17:31 32.813684 -117.139000 115 416ft 17kts
08-Sep-17 17:32 32.811889 -117.137427 9 415ft 0kts

Navigation Log

Ident Type
Flight plan parsing failed, navigation log unavailable